»·PEaware :: UAL1399 KPDX-KGEG

UAL1399 :: KPDX-KGEG

FLIGHT INFORMATION

Flight Status: Arrived
Operator:
United Airlines
More flights by this operator :: More flights under this callsign
Pilot: David C. (16084)
Aircraft: AIRBUS A320
(A320)
More flights by this aircraft type
Origin: KPDX Portland Intl
United States
Destination: KGEG Spokane Intl
United States
More flights between these airports :: More routes between these airports
Route: LAVAA6 YKM MWH ZOOMR1
File this flight plan on PilotEdge
Remarks:
Altitude:
(Current/Filed)
29,000ft
Speed:
(Current/Filed)
479kts
Departed: 19-Jul-18 11:05 AM
Arrived: 19-Jul-18 11:50 AM
Distance/Time
Traveled:
242nm/0:45
Distance/Time
To Go:
Arrived

Flight Plot

Page will automatically refresh every two minutes.

Flight plan parsing failed; only flown route is shown


Map Options




Map Legend


Flown Route
Filed Route
Departure Airport
Arrival Airport
Navaid (VOR, NDB)
Fix

Horizontal Profiles

Position Reports

Time Latitude Longitude Heading Altitude Ground
Speed
19-Jul-18 10:42 45.590228 -122.591577 209 38ft 0kts
19-Jul-18 10:43 45.590228 -122.591577 209 38ft 0kts
19-Jul-18 10:44 45.590228 -122.591577 209 38ft 0kts
19-Jul-18 10:45 45.590228 -122.591577 209 38ft 0kts
19-Jul-18 10:46 45.590228 -122.591577 209 38ft 0kts
19-Jul-18 10:47 45.590228 -122.591577 209 38ft 0kts
19-Jul-18 10:48 45.590228 -122.591577 209 38ft 0kts
19-Jul-18 10:49 45.590228 -122.591577 209 38ft 0kts
19-Jul-18 10:50 45.590228 -122.591577 209 38ft 0kts
19-Jul-18 10:51 45.590228 -122.591577 209 38ft 0kts
19-Jul-18 10:52 45.590228 -122.591577 209 38ft 0kts
19-Jul-18 10:53 45.590228 -122.591577 209 38ft 0kts
19-Jul-18 10:54 45.590228 -122.591577 209 38ft 0kts
19-Jul-18 10:55 45.590245 -122.591563 209 38ft 1kts
19-Jul-18 10:56 45.590712 -122.591203 189 38ft 2kts
19-Jul-18 10:57 45.591102 -122.591493 119 38ft 0kts
19-Jul-18 10:58 45.591102 -122.591493 119 38ft 0kts
19-Jul-18 10:59 45.591102 -122.591493 119 38ft 0kts
19-Jul-18 11:00 45.590271 -122.589302 119 38ft 17kts
19-Jul-18 11:01 45.588532 -122.582718 120 38ft 19kts
19-Jul-18 11:02 45.585821 -122.575760 118 38ft 21kts
19-Jul-18 11:03 45.583290 -122.569235 118 38ft 16kts
19-Jul-18 11:04 45.582769 -122.567662 89 38ft 0kts
19-Jul-18 11:05 45.582828 -122.567276 60 38ft 8kts
19-Jul-18 11:06 45.593655 -122.593024 297 260ft 179kts
19-Jul-18 11:07 45.616790 -122.667088 287 2774ft 240kts
19-Jul-18 11:08 45.651033 -122.755329 300 6012ft 266kts
19-Jul-18 11:09 45.714376 -122.780294 25 9209ft 288kts
19-Jul-18 11:10 45.757857 -122.689267 89 11645ft 334kts
19-Jul-18 11:11 45.756298 -122.553474 89 14194ft 354kts
19-Jul-18 11:12 45.754768 -122.412610 90 16558ft 371kts
19-Jul-18 11:13 45.752937 -122.267665 90 18666ft 385kts
19-Jul-18 11:14 45.750774 -122.113564 91 20623ft 399kts
19-Jul-18 11:15 45.748295 -121.952878 91 22424ft 413kts
19-Jul-18 11:16 45.778705 -121.800508 45 23974ft 418kts
19-Jul-18 11:17 45.855705 -121.672761 45 25485ft 430kts
19-Jul-18 11:18 45.934104 -121.540805 45 26900ft 441kts
19-Jul-18 11:19 46.014415 -121.404819 45 28207ft 452kts
19-Jul-18 11:20 46.095780 -121.266342 46 29193ft 459kts
19-Jul-18 11:21 46.164893 -121.148180 46 29191ft 484kts
19-Jul-18 11:22 46.269651 -120.968016 46 29125ft 520kts
19-Jul-18 11:23 46.361488 -120.809219 46 29127ft 526kts
19-Jul-18 11:24 46.454922 -120.646727 46 29127ft 525kts
19-Jul-18 11:25 46.532745 -120.510610 46 29127ft 525kts
19-Jul-18 11:26 46.625493 -120.349187 46 29117ft 525kts
19-Jul-18 11:27 46.718345 -120.188135 47 29112ft 525kts
19-Jul-18 11:28 46.811647 -120.025217 47 29124ft 525kts
19-Jul-18 11:29 46.920574 -119.833877 47 29113ft 524kts
19-Jul-18 11:30 46.997617 -119.697723 47 29105ft 517kts
19-Jul-18 11:31 47.087569 -119.537800 47 28990ft 508kts
19-Jul-18 11:32 47.175802 -119.379944 48 26733ft 510kts
19-Jul-18 11:33 47.236765 -119.198458 72 23577ft 497kts
19-Jul-18 11:34 47.277897 -119.007894 72 21059ft 481kts
19-Jul-18 11:35 47.317358 -118.823724 73 18531ft 465kts
19-Jul-18 11:36 47.355222 -118.645362 73 15974ft 449kts
19-Jul-18 11:37 47.391507 -118.472941 73 13423ft 432kts
19-Jul-18 11:38 47.426252 -118.311605 71 12050ft 407kts
19-Jul-18 11:39 47.477911 -118.177683 60 11689ft 351kts
19-Jul-18 11:40 47.526267 -118.060329 60 10775ft 319kts
19-Jul-18 11:41 47.570489 -117.952120 60 9746ft 295kts
19-Jul-18 11:42 47.608813 -117.858065 61 8282ft 264kts
19-Jul-18 11:43 47.644241 -117.770868 61 6635ft 234kts
19-Jul-18 11:44 47.673971 -117.697442 62 5181ft 190kts
19-Jul-18 11:45 47.700892 -117.629978 61 4033ft 189kts
19-Jul-18 11:46 47.727668 -117.562798 61 3606ft 188kts
19-Jul-18 11:47 47.741705 -117.491949 106 3419ft 180kts
19-Jul-18 11:48 47.708235 -117.444167 168 3415ft 173kts
19-Jul-18 11:49 47.669591 -117.461153 220 3394ft 145kts
19-Jul-18 11:50 47.641311 -117.503501 221 2653ft 144kts
19-Jul-18 11:51 47.618660 -117.537099 226 2393ft 38kts
19-Jul-18 11:52 47.619505 -117.539944 47 2393ft 14kts
19-Jul-18 11:53 47.622822 -117.534983 45 2393ft 17kts
19-Jul-18 11:54 47.626214 -117.534036 299 2393ft 8kts

Navigation Log

Ident Type
Flight plan parsing failed, navigation log unavailable